sensor_id;sensor_type;location;lat;lon;timestamp;temperature;humidity
77839;SHT31;67034;43.226;27.932;2023-03-04T00:00:57;6.24;90.69
77839;SHT31;67034;43.226;27.932;2023-03-04T00:03:24;6.22;90.88
77839;SHT31;67034;43.226;27.932;2023-03-04T00:05:50;6.13;90.90
77839;SHT31;67034;43.226;27.932;2023-03-04T00:08:15;6.14;90.35
77839;SHT31;67034;43.226;27.932;2023-03-04T00:10:42;6.21;90.12
77839;SHT31;67034;43.226;27.932;2023-03-04T00:13:08;6.20;89.88
77839;SHT31;67034;43.226;27.932;2023-03-04T00:15:33;6.16;90.20
77839;SHT31;67034;43.226;27.932;2023-03-04T00:17:59;6.31;89.89
77839;SHT31;67034;43.226;27.932;2023-03-04T00:20:26;6.39;89.49
77839;SHT31;67034;43.226;27.932;2023-03-04T00:22:52;6.41;89.39
77839;SHT31;67034;43.226;27.932;2023-03-04T00:25:17;6.41;89.29
77839;SHT31;67034;43.226;27.932;2023-03-04T00:27:43;6.21;90.06
77839;SHT31;67034;43.226;27.932;2023-03-04T00:30:09;6.16;90.41
77839;SHT31;67034;43.226;27.932;2023-03-04T00:32:35;6.24;90.20
77839;SHT31;67034;43.226;27.932;2023-03-04T00:35:01;6.28;89.91
77839;SHT31;67034;43.226;27.932;2023-03-04T00:37:28;6.27;90.05
77839;SHT31;67034;43.226;27.932;2023-03-04T00:39:53;6.07;90.55
77839;SHT31;67034;43.226;27.932;2023-03-04T00:42:19;6.11;90.64
77839;SHT31;67034;43.226;27.932;2023-03-04T00:44:44;6.17;90.47
77839;SHT31;67034;43.226;27.932;2023-03-04T00:47:10;6.21;90.38
77839;SHT31;67034;43.226;27.932;2023-03-04T00:49:36;6.18;90.20
77839;SHT31;67034;43.226;27.932;2023-03-04T00:52:02;6.18;90.33
77839;SHT31;67034;43.226;27.932;2023-03-04T00:54:29;6.17;90.33
77839;SHT31;67034;43.226;27.932;2023-03-04T00:56:55;6.07;90.80
77839;SHT31;67034;43.226;27.932;2023-03-04T00:59:21;6.06;91.20
77839;SHT31;67034;43.226;27.932;2023-03-04T01:01:46;6.07;91.15
77839;SHT31;67034;43.226;27.932;2023-03-04T01:04:12;6.00;91.18
77839;SHT31;67034;43.226;27.932;2023-03-04T01:06:37;6.08;91.12
77839;SHT31;67034;43.226;27.932;2023-03-04T01:09:03;6.07;90.99
77839;SHT31;67034;43.226;27.932;2023-03-04T01:11:30;6.01;90.97
77839;SHT31;67034;43.226;27.932;2023-03-04T01:13:55;6.03;91.07
77839;SHT31;67034;43.226;27.932;2023-03-04T01:16:21;6.00;90.84
77839;SHT31;67034;43.226;27.932;2023-03-04T01:18:46;6.04;90.62
77839;SHT31;67034;43.226;27.932;2023-03-04T01:21:12;6.07;90.39
77839;SHT31;67034;43.226;27.932;2023-03-04T01:23:38;6.04;90.21
77839;SHT31;67034;43.226;27.932;2023-03-04T01:26:03;6.07;89.89
77839;SHT31;67034;43.226;27.932;2023-03-04T01:28:30;6.08;89.83
77839;SHT31;67034;43.226;27.932;2023-03-04T01:31:00;6.11;89.63
77839;SHT31;67034;43.226;27.932;2023-03-04T01:33:25;6.13;89.14
77839;SHT31;67034;43.226;27.932;2023-03-04T01:35:51;6.13;89.23
77839;SHT31;67034;43.226;27.932;2023-03-04T01:38:16;6.16;88.97
77839;SHT31;67034;43.226;27.932;2023-03-04T01:40:42;6.18;88.64
77839;SHT31;67034;43.226;27.932;2023-03-04T01:43:09;6.21;88.35
77839;SHT31;67034;43.226;27.932;2023-03-04T01:45:37;6.25;88.07
77839;SHT31;67034;43.226;27.932;2023-03-04T01:48:03;6.24;88.08
77839;SHT31;67034;43.226;27.932;2023-03-04T01:50:29;6.22;87.93
77839;SHT31;67034;43.226;27.932;2023-03-04T01:52:56;6.24;87.91
77839;SHT31;67034;43.226;27.932;2023-03-04T01:55:22;6.21;88.20
77839;SHT31;67034;43.226;27.932;2023-03-04T01:57:48;6.24;88.16
77839;SHT31;67034;43.226;27.932;2023-03-04T02:00:30;6.20;88.26
77839;SHT31;67034;43.226;27.932;2023-03-04T02:02:59;6.20;88.04
77839;SHT31;67034;43.226;27.932;2023-03-04T02:05:27;6.24;87.76
77839;SHT31;67034;43.226;27.932;2023-03-04T02:07:55;6.28;87.73
77839;SHT31;67034;43.226;27.932;2023-03-04T02:10:21;6.42;87.29
77839;SHT31;67034;43.226;27.932;2023-03-04T02:12:47;6.39;87.50
77839;SHT31;67034;43.226;27.932;2023-03-04T02:15:13;6.37;87.55
77839;SHT31;67034;43.226;27.932;2023-03-04T02:17:39;6.44;87.30
77839;SHT31;67034;43.226;27.932;2023-03-04T02:20:09;6.32;88.03
77839;SHT31;67034;43.226;27.932;2023-03-04T02:22:42;6.29;88.26
77839;SHT31;67034;43.226;27.932;2023-03-04T02:25:15;6.41;88.13
77839;SHT31;67034;43.226;27.932;2023-03-04T02:27:44;6.37;88.48
77839;SHT31;67034;43.226;27.932;2023-03-04T02:30:11;6.39;88.54
77839;SHT31;67034;43.226;27.932;2023-03-04T02:32:37;6.38;88.56
77839;SHT31;67034;43.226;27.932;2023-03-04T02:35:03;6.32;89.09
77839;SHT31;67034;43.226;27.932;2023-03-04T02:37:29;6.32;89.23
77839;SHT31;67034;43.226;27.932;2023-03-04T02:39:54;6.38;89.02
77839;SHT31;67034;43.226;27.932;2023-03-04T02:42:20;6.42;88.94
77839;SHT31;67034;43.226;27.932;2023-03-04T02:44:47;6.45;88.68
77839;SHT31;67034;43.226;27.932;2023-03-04T02:47:16;6.50;88.64
77839;SHT31;67034;43.226;27.932;2023-03-04T02:49:42;6.44;88.71
77839;SHT31;67034;43.226;27.932;2023-03-04T02:52:09;6.38;88.74
77839;SHT31;67034;43.226;27.932;2023-03-04T02:54:36;6.42;88.71
77839;SHT31;67034;43.226;27.932;2023-03-04T02:57:04;6.34;88.69
77839;SHT31;67034;43.226;27.932;2023-03-04T02:59:30;6.45;88.63
77839;SHT31;67034;43.226;27.932;2023-03-04T03:01:57;6.48;88.32
77839;SHT31;67034;43.226;27.932;2023-03-04T03:04:23;6.41;88.80
77839;SHT31;67034;43.226;27.932;2023-03-04T03:06:49;6.59;87.65
77839;SHT31;67034;43.226;27.932;2023-03-04T03:09:15;6.52;87.49
77839;SHT31;67034;43.226;27.932;2023-03-04T03:11:41;6.55;87.58
77839;SHT31;67034;43.226;27.932;2023-03-04T03:14:06;6.39;88.09
77839;SHT31;67034;43.226;27.932;2023-03-04T03:16:32;6.38;88.30
77839;SHT31;67034;43.226;27.932;2023-03-04T03:18:59;6.22;89.05
77839;SHT31;67034;43.226;27.932;2023-03-04T03:21:25;6.21;89.05
77839;SHT31;67034;43.226;27.932;2023-03-04T03:23:50;6.38;88.75
77839;SHT31;67034;43.226;27.932;2023-03-04T03:26:17;6.37;88.41
77839;SHT31;67034;43.226;27.932;2023-03-04T03:28:43;6.29;88.61
77839;SHT31;67034;43.226;27.932;2023-03-04T03:31:08;6.29;88.75
77839;SHT31;67034;43.226;27.932;2023-03-04T03:33:34;6.32;88.54
77839;SHT31;67034;43.226;27.932;2023-03-04T03:36:01;6.41;88.56
77839;SHT31;67034;43.226;27.932;2023-03-04T03:38:27;6.37;88.90
77839;SHT31;67034;43.226;27.932;2023-03-04T03:40:52;6.41;89.02
77839;SHT31;67034;43.226;27.932;2023-03-04T03:43:18;6.49;88.53
77839;SHT31;67034;43.226;27.932;2023-03-04T03:45:44;6.42;88.41
77839;SHT31;67034;43.226;27.932;2023-03-04T03:48:09;6.42;88.30
77839;SHT31;67034;43.226;27.932;2023-03-04T03:50:35;6.37;88.46
77839;SHT31;67034;43.226;27.932;2023-03-04T03:53:02;6.35;88.56
77839;SHT31;67034;43.226;27.932;2023-03-04T03:55:28;6.32;89.03
77839;SHT31;67034;43.226;27.932;2023-03-04T03:57:53;6.29;89.45
77839;SHT31;67034;43.226;27.932;2023-03-04T04:00:19;6.29;89.32
77839;SHT31;67034;43.226;27.932;2023-03-04T04:02:45;6.31;89.33
77839;SHT31;67034;43.226;27.932;2023-03-04T04:05:10;6.31;89.24
77839;SHT31;67034;43.226;27.932;2023-03-04T04:07:37;6.38;89.14
77839;SHT31;67034;43.226;27.932;2023-03-04T04:10:05;6.48;88.81
77839;SHT31;67034;43.226;27.932;2023-03-04T04:12:30;6.64;87.93
77839;SHT31;67034;43.226;27.932;2023-03-04T04:14:56;6.64;87.76
77839;SHT31;67034;43.226;27.932;2023-03-04T04:17:22;6.44;88.67
77839;SHT31;67034;43.226;27.932;2023-03-04T04:19:47;6.38;89.34
77839;SHT31;67034;43.226;27.932;2023-03-04T04:22:14;6.44;89.08
77839;SHT31;67034;43.226;27.932;2023-03-04T04:24:40;6.50;88.52
77839;SHT31;67034;43.226;27.932;2023-03-04T04:27:07;6.32;89.22
77839;SHT31;67034;43.226;27.932;2023-03-04T04:29:33;6.31;89.52
77839;SHT31;67034;43.226;27.932;2023-03-04T04:31:58;6.27;89.36
77839;SHT31;67034;43.226;27.932;2023-03-04T04:34:24;6.28;89.70
77839;SHT31;67034;43.226;27.932;2023-03-04T04:36:50;6.25;89.73
77839;SHT31;67034;43.226;27.932;2023-03-04T04:39:15;6.27;90.10
77839;SHT31;67034;43.226;27.932;2023-03-04T04:41:41;6.22;90.20
77839;SHT31;67034;43.226;27.932;2023-03-04T04:44:09;6.31;90.17
77839;SHT31;67034;43.226;27.932;2023-03-04T04:46:35;6.31;89.75
77839;SHT31;67034;43.226;27.932;2023-03-04T04:49:00;6.44;89.25
77839;SHT31;67034;43.226;27.932;2023-03-04T04:51:26;6.44;88.91
77839;SHT31;67034;43.226;27.932;2023-03-04T04:53:52;6.24;89.88
77839;SHT31;67034;43.226;27.932;2023-03-04T04:56:20;6.16;90.12
77839;SHT31;67034;43.226;27.932;2023-03-04T04:58:46;6.22;90.15
77839;SHT31;67034;43.226;27.932;2023-03-04T05:01:14;6.18;90.06
77839;SHT31;67034;43.226;27.932;2023-03-04T05:03:40;6.17;90.23
77839;SHT31;67034;43.226;27.932;2023-03-04T05:06:06;6.27;90.16
77839;SHT31;67034;43.226;27.932;2023-03-04T05:08:32;6.37;89.57
77839;SHT31;67034;43.226;27.932;2023-03-04T05:10:57;6.24;89.78
77839;SHT31;67034;43.226;27.932;2023-03-04T05:13:23;6.11;90.26
77839;SHT31;67034;43.226;27.932;2023-03-04T05:15:49;6.16;90.42
77839;SHT31;67034;43.226;27.932;2023-03-04T05:18:16;6.18;90.49
77839;SHT31;67034;43.226;27.932;2023-03-04T05:20:42;6.11;90.62
77839;SHT31;67034;43.226;27.932;2023-03-04T05:23:08;6.13;90.67
77839;SHT31;67034;43.226;27.932;2023-03-04T05:25:33;6.21;90.43
77839;SHT31;67034;43.226;27.932;2023-03-04T05:27:59;6.24;90.51
77839;SHT31;67034;43.226;27.932;2023-03-04T05:30:26;6.18;90.58
77839;SHT31;67034;43.226;27.932;2023-03-04T05:32:52;6.27;90.36
77839;SHT31;67034;43.226;27.932;2023-03-04T05:35:19;6.28;90.20
77839;SHT31;67034;43.226;27.932;2023-03-04T05:37:44;6.28;90.38
77839;SHT31;67034;43.226;27.932;2023-03-04T05:40:11;6.24;90.75
77839;SHT31;67034;43.226;27.932;2023-03-04T05:42:37;6.27;90.77
77839;SHT31;67034;43.226;27.932;2023-03-04T05:45:03;6.34;90.67
77839;SHT31;67034;43.226;27.932;2023-03-04T05:47:29;6.34;90.49
77839;SHT31;67034;43.226;27.932;2023-03-04T05:49:55;6.35;90.39
77839;SHT31;67034;43.226;27.932;2023-03-04T05:52:23;6.39;90.15
77839;SHT31;67034;43.226;27.932;2023-03-04T05:54:49;6.44;89.61
77839;SHT31;67034;43.226;27.932;2023-03-04T05:57:14;6.38;89.62
77839;SHT31;67034;43.226;27.932;2023-03-04T05:59:40;6.27;89.88
77839;SHT31;67034;43.226;27.932;2023-03-04T06:02:06;6.37;90.02
77839;SHT31;67034;43.226;27.932;2023-03-04T06:04:31;6.34;89.79
77839;SHT31;67034;43.226;27.932;2023-03-04T06:06:57;6.42;89.58
77839;SHT31;67034;43.226;27.932;2023-03-04T06:09:24;6.49;89.09
77839;SHT31;67034;43.226;27.932;2023-03-04T06:11:49;6.52;88.92
77839;SHT31;67034;43.226;27.932;2023-03-04T06:14:15;6.48;89.32
77839;SHT31;67034;43.226;27.932;2023-03-04T06:16:41;6.44;89.55
77839;SHT31;67034;43.226;27.932;2023-03-04T06:19:06;6.55;89.29
77839;SHT31;67034;43.226;27.932;2023-03-04T06:21:32;6.42;89.50
77839;SHT31;67034;43.226;27.932;2023-03-04T06:23:57;6.48;89.50
77839;SHT31;67034;43.226;27.932;2023-03-04T06:26:24;6.42;89.39
77839;SHT31;67034;43.226;27.932;2023-03-04T06:28:50;6.52;89.12
77839;SHT31;67034;43.226;27.932;2023-03-04T06:31:16;6.55;88.84
77839;SHT31;67034;43.226;27.932;2023-03-04T06:33:41;6.52;88.57
77839;SHT31;67034;43.226;27.932;2023-03-04T06:36:07;6.53;88.42
77839;SHT31;67034;43.226;27.932;2023-03-04T06:38:32;6.52;89.05
77839;SHT31;67034;43.226;27.932;2023-03-04T06:41:05;6.69;88.33
77839;SHT31;67034;43.226;27.932;2023-03-04T06:43:32;6.66;89.02
77839;SHT31;67034;43.226;27.932;2023-03-04T06:45:58;6.75;88.60
77839;SHT31;67034;43.226;27.932;2023-03-04T06:48:23;6.62;88.32
77839;SHT31;67034;43.226;27.932;2023-03-04T06:50:49;6.68;88.53
77839;SHT31;67034;43.226;27.932;2023-03-04T06:53:15;6.72;88.49
77839;SHT31;67034;43.226;27.932;2023-03-04T06:55:40;6.76;88.54
77839;SHT31;67034;43.226;27.932;2023-03-04T06:58:06;6.82;88.46
77839;SHT31;67034;43.226;27.932;2023-03-04T07:00:33;6.82;87.88
77839;SHT31;67034;43.226;27.932;2023-03-04T07:02:59;6.95;87.69
77839;SHT31;67034;43.226;27.932;2023-03-04T07:05:24;6.99;87.13
77839;SHT31;67034;43.226;27.932;2023-03-04T07:07:50;7.00;86.61
77839;SHT31;67034;43.226;27.932;2023-03-04T07:10:15;6.95;86.57
77839;SHT31;67034;43.226;27.932;2023-03-04T07:12:41;7.00;86.59
77839;SHT31;67034;43.226;27.932;2023-03-04T07:15:08;7.00;85.83
77839;SHT31;67034;43.226;27.932;2023-03-04T07:17:35;7.14;86.16
77839;SHT31;67034;43.226;27.932;2023-03-04T07:20:01;7.34;85.31
77839;SHT31;67034;43.226;27.932;2023-03-04T07:22:26;7.30;84.96
77839;SHT31;67034;43.226;27.932;2023-03-04T07:24:52;7.28;84.28
77839;SHT31;67034;43.226;27.932;2023-03-04T07:27:18;7.35;84.17
77839;SHT31;67034;43.226;27.932;2023-03-04T07:29:43;7.41;83.78
77839;SHT31;67034;43.226;27.932;2023-03-04T07:32:10;7.61;84.11
77839;SHT31;67034;43.226;27.932;2023-03-04T07:34:37;7.61;82.16
77839;SHT31;67034;43.226;27.932;2023-03-04T07:37:03;7.54;82.94
77839;SHT31;67034;43.226;27.932;2023-03-04T07:39:29;7.71;82.01
77839;SHT31;67034;43.226;27.932;2023-03-04T07:41:54;7.78;81.59
77839;SHT31;67034;43.226;27.932;2023-03-04T07:44:21;7.74;81.03
77839;SHT31;67034;43.226;27.932;2023-03-04T07:46:47;7.78;81.77
77839;SHT31;67034;43.226;27.932;2023-03-04T07:49:12;7.76;80.86
77839;SHT31;67034;43.226;27.932;2023-03-04T07:51:40;7.82;80.98
77839;SHT31;67034;43.226;27.932;2023-03-04T07:54:05;7.95;80.94
77839;SHT31;67034;43.226;27.932;2023-03-04T07:56:32;8.14;80.13
77839;SHT31;67034;43.226;27.932;2023-03-04T07:58:59;8.20;80.78
77839;SHT31;67034;43.226;27.932;2023-03-04T08:01:27;8.33;79.90
77839;SHT31;67034;43.226;27.932;2023-03-04T08:03:53;8.33;79.46
77839;SHT31;67034;43.226;27.932;2023-03-04T08:06:20;8.60;78.32
77839;SHT31;67034;43.226;27.932;2023-03-04T08:08:48;8.78;78.82
77839;SHT31;67034;43.226;27.932;2023-03-04T08:11:19;8.57;77.25
77839;SHT31;67034;43.226;27.932;2023-03-04T08:13:45;8.75;76.52
77839;SHT31;67034;43.226;27.932;2023-03-04T08:16:12;8.85;77.28
77839;SHT31;67034;43.226;27.932;2023-03-04T08:18:40;8.98;76.35
77839;SHT31;67034;43.226;27.932;2023-03-04T08:21:08;8.93;75.84
77839;SHT31;67034;43.226;27.932;2023-03-04T08:23:34;9.02;76.54
77839;SHT31;67034;43.226;27.932;2023-03-04T08:26:05;9.01;75.70
77839;SHT31;67034;43.226;27.932;2023-03-04T08:28:30;9.05;75.05
77839;SHT31;67034;43.226;27.932;2023-03-04T08:30:56;9.13;75.84
77839;SHT31;67034;43.226;27.932;2023-03-04T08:33:22;9.11;75.25
77839;SHT31;67034;43.226;27.932;2023-03-04T08:35:47;9.29;74.21
77839;SHT31;67034;43.226;27.932;2023-03-04T08:38:13;9.23;74.72
77839;SHT31;67034;43.226;27.932;2023-03-04T08:40:39;9.23;75.43
77839;SHT31;67034;43.226;27.932;2023-03-04T08:43:06;8.96;76.07
77839;SHT31;67034;43.226;27.932;2023-03-04T08:45:32;9.09;76.73
77839;SHT31;67034;43.226;27.932;2023-03-04T08:47:57;9.19;75.75
77839;SHT31;67034;43.226;27.932;2023-03-04T08:50:23;9.32;75.94
77839;SHT31;67034;43.226;27.932;2023-03-04T08:52:49;9.46;76.12
77839;SHT31;67034;43.226;27.932;2023-03-04T08:55:15;9.57;75.84
77839;SHT31;67034;43.226;27.932;2023-03-04T08:57:40;9.65;75.31
77839;SHT31;67034;43.226;27.932;2023-03-04T09:00:09;9.54;76.38
77839;SHT31;67034;43.226;27.932;2023-03-04T09:02:35;9.97;73.50
77839;SHT31;67034;43.226;27.932;2023-03-04T09:05:01;9.97;72.46
77839;SHT31;67034;43.226;27.932;2023-03-04T09:07:26;9.87;72.96
77839;SHT31;67034;43.226;27.932;2023-03-04T09:09:52;9.91;72.47
77839;SHT31;67034;43.226;27.932;2023-03-04T09:12:18;9.82;72.86
77839;SHT31;67034;43.226;27.932;2023-03-04T09:14:43;10.05;72.66
77839;SHT31;67034;43.226;27.932;2023-03-04T09:17:10;10.29;71.79
77839;SHT31;67034;43.226;27.932;2023-03-04T09:19:36;10.36;71.12
77839;SHT31;67034;43.226;27.932;2023-03-04T09:22:02;10.49;70.27
77839;SHT31;67034;43.226;27.932;2023-03-04T09:24:27;10.56;70.42
77839;SHT31;67034;43.226;27.932;2023-03-04T09:26:53;10.61;68.88
77839;SHT31;67034;43.226;27.932;2023-03-04T09:29:20;10.45;69.56
77839;SHT31;67034;43.226;27.932;2023-03-04T09:31:46;10.63;69.84
77839;SHT31;67034;43.226;27.932;2023-03-04T09:34:13;10.64;69.41
77839;SHT31;67034;43.226;27.932;2023-03-04T09:36:39;10.49;68.03
77839;SHT31;67034;43.226;27.932;2023-03-04T09:39:05;10.61;69.79
77839;SHT31;67034;43.226;27.932;2023-03-04T09:41:36;10.73;68.14
77839;SHT31;67034;43.226;27.932;2023-03-04T09:44:04;10.76;67.37
77839;SHT31;67034;43.226;27.932;2023-03-04T09:46:34;10.97;67.02
77839;SHT31;67034;43.226;27.932;2023-03-04T09:49:01;11.31;66.47
77839;SHT31;67034;43.226;27.932;2023-03-04T09:51:40;11.14;67.15
77839;SHT31;67034;43.226;27.932;2023-03-04T09:54:10;11.75;64.13
77839;SHT31;67034;43.226;27.932;2023-03-04T09:56:39;11.25;66.67
77839;SHT31;67034;43.226;27.932;2023-03-04T09:59:14;11.28;67.03
77839;SHT31;67034;43.226;27.932;2023-03-04T10:01:45;11.24;66.90
77839;SHT31;67034;43.226;27.932;2023-03-04T10:04:16;11.39;66.84
77839;SHT31;67034;43.226;27.932;2023-03-04T10:06:44;11.75;65.32
77839;SHT31;67034;43.226;27.932;2023-03-04T10:09:19;11.90;64.43
77839;SHT31;67034;43.226;27.932;2023-03-04T10:11:47;12.07;64.08
77839;SHT31;67034;43.226;27.932;2023-03-04T10:14:25;12.14;62.69
77839;SHT31;67034;43.226;27.932;2023-03-04T10:16:57;12.30;63.23
77839;SHT31;67034;43.226;27.932;2023-03-04T10:19:30;12.41;61.33
77839;SHT31;67034;43.226;27.932;2023-03-04T10:21:58;12.34;60.93
77839;SHT31;67034;43.226;27.932;2023-03-04T10:24:27;12.49;60.07
77839;SHT31;67034;43.226;27.932;2023-03-04T10:26:55;12.58;59.61
77839;SHT31;67034;43.226;27.932;2023-03-04T10:29:23;12.69;59.08
77839;SHT31;67034;43.226;27.932;2023-03-04T10:31:50;12.68;59.65
77839;SHT31;67034;43.226;27.932;2023-03-04T10:34:16;12.65;59.81
77839;SHT31;67034;43.226;27.932;2023-03-04T10:36:59;12.93;59.00
77839;SHT31;67034;43.226;27.932;2023-03-04T10:39:27;12.69;59.07
77839;SHT31;67034;43.226;27.932;2023-03-04T10:41:57;13.31;58.04
77839;SHT31;67034;43.226;27.932;2023-03-04T10:44:23;13.46;57.53
77839;SHT31;67034;43.226;27.932;2023-03-04T10:46:52;13.17;57.63
77839;SHT31;67034;43.226;27.932;2023-03-04T10:49:19;13.14;58.65
77839;SHT31;67034;43.226;27.932;2023-03-04T10:51:46;13.24;57.35
77839;SHT31;67034;43.226;27.932;2023-03-04T10:54:22;13.64;57.16
77839;SHT31;67034;43.226;27.932;2023-03-04T10:56:55;13.54;57.64
77839;SHT31;67034;43.226;27.932;2023-03-04T10:59:33;13.75;57.04
77839;SHT31;67034;43.226;27.932;2023-03-04T11:02:05;13.51;57.54
77839;SHT31;67034;43.226;27.932;2023-03-04T11:04:35;13.81;57.44
77839;SHT31;67034;43.226;27.932;2023-03-04T11:07:01;14.08;56.54
77839;SHT31;67034;43.226;27.932;2023-03-04T11:09:29;13.53;57.18
77839;SHT31;67034;43.226;27.932;2023-03-04T11:11:58;13.86;56.32
77839;SHT31;67034;43.226;27.932;2023-03-04T11:14:25;13.94;55.72
77839;SHT31;67034;43.226;27.932;2023-03-04T11:16:56;13.85;55.24
77839;SHT31;67034;43.226;27.932;2023-03-04T11:19:27;13.39;61.14
77839;SHT31;67034;43.226;27.932;2023-03-04T11:21:54;12.55;63.65
77839;SHT31;67034;43.226;27.932;2023-03-04T11:24:23;12.10;66.16
77839;SHT31;67034;43.226;27.932;2023-03-04T11:26:54;12.55;65.46
77839;SHT31;67034;43.226;27.932;2023-03-04T11:29:24;13.03;63.92
77839;SHT31;67034;43.226;27.932;2023-03-04T11:31:53;13.34;62.72
77839;SHT31;67034;43.226;27.932;2023-03-04T11:34:30;13.46;61.60
77839;SHT31;67034;43.226;27.932;2023-03-04T11:36:59;13.31;60.66
77839;SHT31;67034;43.226;27.932;2023-03-04T11:39:33;13.30;61.40
77839;SHT31;67034;43.226;27.932;2023-03-04T11:42:04;13.57;63.01
77839;SHT31;67034;43.226;27.932;2023-03-04T11:44:31;13.40;59.83
77839;SHT31;67034;43.226;27.932;2023-03-04T11:47:06;13.62;61.42
77839;SHT31;67034;43.226;27.932;2023-03-04T11:52:47;13.47;61.23
77839;SHT31;67034;43.226;27.932;2023-03-04T11:55:29;13.30;61.11
77839;SHT31;67034;43.226;27.932;2023-03-04T11:58:05;13.33;62.07
77839;SHT31;67034;43.226;27.932;2023-03-04T12:00:38;13.43;60.57
77839;SHT31;67034;43.226;27.932;2023-03-04T12:03:34;13.79;61.28
77839;SHT31;67034;43.226;27.932;2023-03-04T12:06:10;13.97;58.58
77839;SHT31;67034;43.226;27.932;2023-03-04T12:08:52;14.10;59.83
77839;SHT31;67034;43.226;27.932;2023-03-04T12:11:30;13.78;58.61
77839;SHT31;67034;43.226;27.932;2023-03-04T12:14:12;13.77;58.86
77839;SHT31;67034;43.226;27.932;2023-03-04T12:17:12;13.72;58.69
77839;SHT31;67034;43.226;27.932;2023-03-04T12:19:57;13.39;61.04
77839;SHT31;67034;43.226;27.932;2023-03-04T12:22:39;13.27;61.08
77839;SHT31;67034;43.226;27.932;2023-03-04T12:25:21;13.27;60.34
77839;SHT31;67034;43.226;27.932;2023-03-04T12:27:56;13.06;61.83
77839;SHT31;67034;43.226;27.932;2023-03-04T12:30:36;12.46;62.44
77839;SHT31;67034;43.226;27.932;2023-03-04T12:33:11;12.30;65.37
77839;SHT31;67034;43.226;27.932;2023-03-04T12:35:45;12.38;64.00
77839;SHT31;67034;43.226;27.932;2023-03-04T12:38:47;12.24;64.71
77839;SHT31;67034;43.226;27.932;2023-03-04T12:41:20;12.13;65.95
77839;SHT31;67034;43.226;27.932;2023-03-04T12:43:52;12.34;65.15
77839;SHT31;67034;43.226;27.932;2023-03-04T12:46:41;12.27;65.76
77839;SHT31;67034;43.226;27.932;2023-03-04T12:49:31;12.35;66.53
77839;SHT31;67034;43.226;27.932;2023-03-04T12:52:05;12.20;65.57
77839;SHT31;67034;43.226;27.932;2023-03-04T12:54:38;12.13;65.41
77839;SHT31;67034;43.226;27.932;2023-03-04T12:57:08;11.76;67.39
77839;SHT31;67034;43.226;27.932;2023-03-04T12:59:38;11.45;68.35
77839;SHT31;67034;43.226;27.932;2023-03-04T13:02:30;11.46;68.80
77839;SHT31;67034;43.226;27.932;2023-03-04T13:05:05;11.40;67.91
77839;SHT31;67034;43.226;27.932;2023-03-04T13:07:41;11.29;68.65
77839;SHT31;67034;43.226;27.932;2023-03-04T13:10:15;11.10;70.26
77839;SHT31;67034;43.226;27.932;2023-03-04T13:12:49;10.97;70.07
77839;SHT31;67034;43.226;27.932;2023-03-04T13:15:30;10.73;72.43
77839;SHT31;67034;43.226;27.932;2023-03-04T13:17:57;10.66;73.38
77839;SHT31;67034;43.226;27.932;2023-03-04T13:20:32;10.88;73.05
77839;SHT31;67034;43.226;27.932;2023-03-04T13:22:59;10.97;71.92
77839;SHT31;67034;43.226;27.932;2023-03-04T13:25:42;11.17;71.84
77839;SHT31;67034;43.226;27.932;2023-03-04T13:28:23;11.31;70.86
77839;SHT31;67034;43.226;27.932;2023-03-04T13:31:15;11.43;70.25
77839;SHT31;67034;43.226;27.932;2023-03-04T13:33:59;11.34;71.55
77839;SHT31;67034;43.226;27.932;2023-03-04T13:36:34;11.72;68.93
77839;SHT31;67034;43.226;27.932;2023-03-04T13:39:30;11.82;70.01
77839;SHT31;67034;43.226;27.932;2023-03-04T13:41:57;12.33;67.28
77839;SHT31;67034;43.226;27.932;2023-03-04T13:47:42;12.85;65.60
77839;SHT31;67034;43.226;27.932;2023-03-04T13:50:30;13.13;64.58
77839;SHT31;67034;43.226;27.932;2023-03-04T13:59:03;13.19;64.36
77839;SHT31;67034;43.226;27.932;2023-03-04T14:01:31;13.78;62.40
77839;SHT31;67034;43.226;27.932;2023-03-04T14:03:57;13.41;62.50
77839;SHT31;67034;43.226;27.932;2023-03-04T14:06:26;12.76;65.15
77839;SHT31;67034;43.226;27.932;2023-03-04T14:08:53;12.99;64.02
77839;SHT31;67034;43.226;27.932;2023-03-04T14:11:28;12.65;64.51
77839;SHT31;67034;43.226;27.932;2023-03-04T14:13:58;12.31;66.73
77839;SHT31;67034;43.226;27.932;2023-03-04T14:16:26;12.35;66.41
77839;SHT31;67034;43.226;27.932;2023-03-04T14:19:00;12.21;66.66
77839;SHT31;67034;43.226;27.932;2023-03-04T14:21:29;11.91;67.64
77839;SHT31;67034;43.226;27.932;2023-03-04T14:24:06;11.51;69.33
77839;SHT31;67034;43.226;27.932;2023-03-04T14:26:33;11.29;70.30
77839;SHT31;67034;43.226;27.932;2023-03-04T14:28:59;11.06;71.01
77839;SHT31;67034;43.226;27.932;2023-03-04T14:31:28;10.88;71.74
77839;SHT31;67034;43.226;27.932;2023-03-04T14:33:56;10.70;72.40
77839;SHT31;67034;43.226;27.932;2023-03-04T14:36:29;10.55;73.35
77839;SHT31;67034;43.226;27.932;2023-03-04T14:38:58;10.53;73.28
77839;SHT31;67034;43.226;27.932;2023-03-04T14:41:27;10.33;74.42
77839;SHT31;67034;43.226;27.932;2023-03-04T14:44:00;10.48;74.17
77839;SHT31;67034;43.226;27.932;2023-03-04T14:46:30;10.33;74.72
77839;SHT31;67034;43.226;27.932;2023-03-04T14:48:58;10.48;73.84
77839;SHT31;67034;43.226;27.932;2023-03-04T14:51:32;10.48;73.81
77839;SHT31;67034;43.226;27.932;2023-03-04T14:54:01;10.42;74.28
77839;SHT31;67034;43.226;27.932;2023-03-04T14:56:27;10.35;74.25
77839;SHT31;67034;43.226;27.932;2023-03-04T14:58:55;9.88;76.38
77839;SHT31;67034;43.226;27.932;2023-03-04T15:01:28;9.95;75.70
77839;SHT31;67034;43.226;27.932;2023-03-04T15:03:56;9.54;77.22
77839;SHT31;67034;43.226;27.932;2023-03-04T15:06:25;9.75;76.91
77839;SHT31;67034;43.226;27.932;2023-03-04T15:08:57;9.55;77.09
77839;SHT31;67034;43.226;27.932;2023-03-04T15:11:26;9.47;77.52
77839;SHT31;67034;43.226;27.932;2023-03-04T15:13:54;9.39;77.41
77839;SHT31;67034;43.226;27.932;2023-03-04T15:16:21;9.44;77.56
77839;SHT31;67034;43.226;27.932;2023-03-04T15:18:55;9.27;78.72
77839;SHT31;67034;43.226;27.932;2023-03-04T15:21:32;9.27;78.32
77839;SHT31;67034;43.226;27.932;2023-03-04T15:24:00;9.46;77.71
77839;SHT31;67034;43.226;27.932;2023-03-04T15:26:27;9.42;77.74
77839;SHT31;67034;43.226;27.932;2023-03-04T15:28:53;9.06;78.71
77839;SHT31;67034;43.226;27.932;2023-03-04T15:31:21;8.98;78.97
77839;SHT31;67034;43.226;27.932;2023-03-04T15:33:47;8.81;79.56
77839;SHT31;67034;43.226;27.932;2023-03-04T15:36:15;8.98;79.01
77839;SHT31;67034;43.226;27.932;2023-03-04T15:38:43;8.86;79.45
77839;SHT31;67034;43.226;27.932;2023-03-04T15:41:16;8.89;79.61
77839;SHT31;67034;43.226;27.932;2023-03-04T15:43:43;8.71;79.72
77839;SHT31;67034;43.226;27.932;2023-03-04T15:46:10;8.76;79.44